sensor_id;sensor_type;location;lat;lon;timestamp;temperature;humidity
16491;DHT22;8356;51.214;3.270;2024-03-29T00:01:21;332.80;2329.60
16491;DHT22;8356;51.214;3.270;2024-03-29T00:03:47;332.80;2329.60
16491;DHT22;8356;51.214;3.270;2024-03-29T00:06:12;332.80;2329.60
16491;DHT22;8356;51.214;3.270;2024-03-29T00:08:38;332.80;2329.60
16491;DHT22;8356;51.214;3.270;2024-03-29T00:11:04;332.80;2329.60
16491;DHT22;8356;51.214;3.270;2024-03-29T00:13:30;332.80;2329.60
16491;DHT22;8356;51.214;3.270;2024-03-29T00:15:55;332.80;2329.60
16491;DHT22;8356;51.214;3.270;2024-03-29T00:18:21;332.80;2329.60
16491;DHT22;8356;51.214;3.270;2024-03-29T00:20:47;308.10;2304.00
16491;DHT22;8356;51.214;3.270;2024-03-29T00:23:13;308.10;2304.00
16491;DHT22;8356;51.214;3.270;2024-03-29T00:25:38;308.10;2304.00
16491;DHT22;8356;51.214;3.270;2024-03-29T00:28:04;308.10;2304.00
16491;DHT22;8356;51.214;3.270;2024-03-29T00:30:30;308.10;2304.00
16491;DHT22;8356;51.214;3.270;2024-03-29T00:32:56;308.10;2304.00
16491;DHT22;8356;51.214;3.270;2024-03-29T00:35:21;308.10;2304.00
16491;DHT22;8356;51.214;3.270;2024-03-29T00:37:49;308.10;2304.00
16491;DHT22;8356;51.214;3.270;2024-03-29T00:40:15;308.10;2304.00
16491;DHT22;8356;51.214;3.270;2024-03-29T00:42:41;308.10;2304.00
16491;DHT22;8356;51.214;3.270;2024-03-29T00:45:07;308.10;2304.00
16491;DHT22;8356;51.214;3.270;2024-03-29T00:47:32;308.00;2304.00
16491;DHT22;8356;51.214;3.270;2024-03-29T00:49:58;308.10;2304.00
16491;DHT22;8356;51.214;3.270;2024-03-29T00:52:24;308.00;2304.00
16491;DHT22;8356;51.214;3.270;2024-03-29T00:54:49;308.10;2304.00
16491;DHT22;8356;51.214;3.270;2024-03-29T00:57:15;308.10;2304.00
16491;DHT22;8356;51.214;3.270;2024-03-29T00:59:42;308.10;2304.00
16491;DHT22;8356;51.214;3.270;2024-03-29T01:02:09;308.00;2304.00
16491;DHT22;8356;51.214;3.270;2024-03-29T01:04:34;308.00;2304.00
16491;DHT22;8356;51.214;3.270;2024-03-29T01:07:00;308.00;2304.00
16491;DHT22;8356;51.214;3.270;2024-03-29T01:09:26;308.00;2304.00
16491;DHT22;8356;51.214;3.270;2024-03-29T01:11:52;307.90;2304.00
16491;DHT22;8356;51.214;3.270;2024-03-29T01:14:17;308.00;2304.00
16491;DHT22;8356;51.214;3.270;2024-03-29T01:16:43;308.00;2304.00
16491;DHT22;8356;51.214;3.270;2024-03-29T01:19:08;308.00;2304.00
16491;DHT22;8356;51.214;3.270;2024-03-29T01:21:35;308.00;2304.00
16491;DHT22;8356;51.214;3.270;2024-03-29T01:24:02;308.10;2304.00
16491;DHT22;8356;51.214;3.270;2024-03-29T01:26:27;308.00;2304.00
16491;DHT22;8356;51.214;3.270;2024-03-29T01:28:53;307.90;2304.00
16491;DHT22;8356;51.214;3.270;2024-03-29T01:31:19;307.90;2304.00
16491;DHT22;8356;51.214;3.270;2024-03-29T01:33:44;307.90;2304.00
16491;DHT22;8356;51.214;3.270;2024-03-29T01:36:10;307.90;2304.00
16491;DHT22;8356;51.214;3.270;2024-03-29T01:38:36;307.90;2304.00
16491;DHT22;8356;51.214;3.270;2024-03-29T01:41:02;307.90;2304.00
16491;DHT22;8356;51.214;3.270;2024-03-29T01:43:28;307.90;2304.00
16491;DHT22;8356;51.214;3.270;2024-03-29T01:45:54;307.90;2304.00
16491;DHT22;8356;51.214;3.270;2024-03-29T01:48:25;307.90;2304.00
16491;DHT22;8356;51.214;3.270;2024-03-29T01:50:53;307.90;2304.00
16491;DHT22;8356;51.214;3.270;2024-03-29T01:53:22;307.90;2304.00
16491;DHT22;8356;51.214;3.270;2024-03-29T01:55:48;307.90;2304.00
16491;DHT22;8356;51.214;3.270;2024-03-29T01:58:14;307.90;2304.00
16491;DHT22;8356;51.214;3.270;2024-03-29T02:00:58;307.80;2304.00
16491;DHT22;8356;51.214;3.270;2024-03-29T02:03:24;307.90;2304.00
16491;DHT22;8356;51.214;3.270;2024-03-29T02:05:50;307.80;2304.00
16491;DHT22;8356;51.214;3.270;2024-03-29T02:08:16;307.90;2304.00
16491;DHT22;8356;51.214;3.270;2024-03-29T02:10:45;307.80;2304.00
16491;DHT22;8356;51.214;3.270;2024-03-29T02:13:12;307.90;2304.00
16491;DHT22;8356;51.214;3.270;2024-03-29T02:15:39;307.80;2304.00
16491;DHT22;8356;51.214;3.270;2024-03-29T02:18:06;307.80;2304.00
16491;DHT22;8356;51.214;3.270;2024-03-29T02:20:32;308.10;2304.00
16491;DHT22;8356;51.214;3.270;2024-03-29T02:23:20;307.80;2304.00
16491;DHT22;8356;51.214;3.270;2024-03-29T02:25:49;307.80;2304.00
16491;DHT22;8356;51.214;3.270;2024-03-29T02:28:16;307.80;2304.00
16491;DHT22;8356;51.214;3.270;2024-03-29T02:30:42;307.80;2304.00
16491;DHT22;8356;51.214;3.270;2024-03-29T02:33:07;307.80;2304.00
16491;DHT22;8356;51.214;3.270;2024-03-29T02:35:33;307.80;2304.00
16491;DHT22;8356;51.214;3.270;2024-03-29T02:37:59;307.80;2304.00
16491;DHT22;8356;51.214;3.270;2024-03-29T02:40:24;307.90;2304.00
16491;DHT22;8356;51.214;3.270;2024-03-29T02:42:50;307.90;2304.00
16491;DHT22;8356;51.214;3.270;2024-03-29T02:45:16;307.90;2304.00
16491;DHT22;8356;51.214;3.270;2024-03-29T02:47:42;307.90;2304.00
16491;DHT22;8356;51.214;3.270;2024-03-29T02:50:10;307.90;2304.00
16491;DHT22;8356;51.214;3.270;2024-03-29T02:52:36;307.90;2304.00
16491;DHT22;8356;51.214;3.270;2024-03-29T02:55:02;307.90;2304.00
16491;DHT22;8356;51.214;3.270;2024-03-29T02:57:27;307.80;2304.00
16491;DHT22;8356;51.214;3.270;2024-03-29T02:59:53;307.90;2304.00
16491;DHT22;8356;51.214;3.270;2024-03-29T03:02:19;307.80;2304.00
16491;DHT22;8356;51.214;3.270;2024-03-29T03:04:44;307.90;2304.00
16491;DHT22;8356;51.214;3.270;2024-03-29T03:07:10;307.90;2304.00
16491;DHT22;8356;51.214;3.270;2024-03-29T03:09:54;307.90;2304.00
16491;DHT22;8356;51.214;3.270;2024-03-29T03:12:38;307.90;2304.00
16491;DHT22;8356;51.214;3.270;2024-03-29T03:15:04;307.90;2304.00
16491;DHT22;8356;51.214;3.270;2024-03-29T03:17:31;307.90;2304.00
16491;DHT22;8356;51.214;3.270;2024-03-29T03:19:57;307.80;2304.00
16491;DHT22;8356;51.214;3.270;2024-03-29T03:22:23;307.80;2304.00
16491;DHT22;8356;51.214;3.270;2024-03-29T03:24:49;307.90;2304.00
16491;DHT22;8356;51.214;3.270;2024-03-29T03:27:15;307.80;2304.00
16491;DHT22;8356;51.214;3.270;2024-03-29T03:29:40;307.80;2304.00
16491;DHT22;8356;51.214;3.270;2024-03-29T03:32:06;307.70;2304.00
16491;DHT22;8356;51.214;3.270;2024-03-29T03:34:32;307.70;2304.00
16491;DHT22;8356;51.214;3.270;2024-03-29T03:36:58;307.70;2304.00
16491;DHT22;8356;51.214;3.270;2024-03-29T03:39:24;307.60;2304.00
16491;DHT22;8356;51.214;3.270;2024-03-29T03:41:50;307.60;2304.00
16491;DHT22;8356;51.214;3.270;2024-03-29T03:44:16;307.60;2304.00
16491;DHT22;8356;51.214;3.270;2024-03-29T03:46:41;307.60;2304.00
16491;DHT22;8356;51.214;3.270;2024-03-29T03:49:07;307.40;2304.00
16491;DHT22;8356;51.214;3.270;2024-03-29T03:51:33;307.40;2304.00
16491;DHT22;8356;51.214;3.270;2024-03-29T03:53:58;307.40;2304.00
16491;DHT22;8356;51.214;3.270;2024-03-29T03:56:24;307.30;2304.00
16491;DHT22;8356;51.214;3.270;2024-03-29T03:58:49;307.30;2304.00
16491;DHT22;8356;51.214;3.270;2024-03-29T04:01:15;307.30;2304.00
16491;DHT22;8356;51.214;3.270;2024-03-29T04:03:41;307.30;2304.00
16491;DHT22;8356;51.214;3.270;2024-03-29T04:06:06;307.20;2304.00
16491;DHT22;8356;51.214;3.270;2024-03-29T04:08:32;282.50;2278.40
16491;DHT22;8356;51.214;3.270;2024-03-29T04:11:05;307.20;2304.00
16491;DHT22;8356;51.214;3.270;2024-03-29T04:13:30;282.50;2278.40
16491;DHT22;8356;51.214;3.270;2024-03-29T04:16:03;307.20;2304.00
16491;DHT22;8356;51.214;3.270;2024-03-29T04:18:28;282.00;2278.40
16491;DHT22;8356;51.214;3.270;2024-03-29T04:21:01;282.50;2278.40
16491;DHT22;8356;51.214;3.270;2024-03-29T04:23:27;282.40;2278.40
16491;DHT22;8356;51.214;3.270;2024-03-29T04:25:57;282.40;2278.40
16491;DHT22;8356;51.214;3.270;2024-03-29T04:28:23;282.40;2278.40
16491;DHT22;8356;51.214;3.270;2024-03-29T04:30:59;282.40;2278.40
16491;DHT22;8356;51.214;3.270;2024-03-29T04:33:26;282.30;2278.40
16491;DHT22;8356;51.214;3.270;2024-03-29T04:36:01;282.30;2278.40
16491;DHT22;8356;51.214;3.270;2024-03-29T04:38:28;282.20;2278.40
16491;DHT22;8356;51.214;3.270;2024-03-29T04:40:55;282.10;2278.40
16491;DHT22;8356;51.214;3.270;2024-03-29T04:43:24;282.10;2278.40
16491;DHT22;8356;51.214;3.270;2024-03-29T04:45:50;282.10;2278.40
16491;DHT22;8356;51.214;3.270;2024-03-29T04:48:16;282.10;2278.40
16491;DHT22;8356;51.214;3.270;2024-03-29T04:50:41;282.30;2278.40
16491;DHT22;8356;51.214;3.270;2024-03-29T04:53:07;282.20;2278.40
16491;DHT22;8356;51.214;3.270;2024-03-29T04:55:34;282.10;2278.40
16491;DHT22;8356;51.214;3.270;2024-03-29T04:58:00;282.20;2278.40
16491;DHT22;8356;51.214;3.270;2024-03-29T05:00:25;282.10;2278.40
16491;DHT22;8356;51.214;3.270;2024-03-29T05:02:51;282.10;2278.40
16491;DHT22;8356;51.214;3.270;2024-03-29T05:05:17;282.10;2278.40
16491;DHT22;8356;51.214;3.270;2024-03-29T05:07:42;282.00;2278.40
16491;DHT22;8356;51.214;3.270;2024-03-29T05:10:08;281.90;2278.40
16491;DHT22;8356;51.214;3.270;2024-03-29T05:12:35;282.00;2278.40
16491;DHT22;8356;51.214;3.270;2024-03-29T05:15:01;282.10;2278.40
16491;DHT22;8356;51.214;3.270;2024-03-29T05:17:27;282.10;2278.40
16491;DHT22;8356;51.214;3.270;2024-03-29T05:19:53;282.10;2278.40
16491;DHT22;8356;51.214;3.270;2024-03-29T05:22:19;282.00;2278.40
16491;DHT22;8356;51.214;3.270;2024-03-29T05:24:45;282.10;2278.40
16491;DHT22;8356;51.214;3.270;2024-03-29T05:27:14;282.10;2278.40
16491;DHT22;8356;51.214;3.270;2024-03-29T05:29:39;282.10;2278.40
16491;DHT22;8356;51.214;3.270;2024-03-29T05:32:07;282.10;2278.40
16491;DHT22;8356;51.214;3.270;2024-03-29T05:34:32;282.00;2278.40
16491;DHT22;8356;51.214;3.270;2024-03-29T05:36:58;282.00;2278.40
16491;DHT22;8356;51.214;3.270;2024-03-29T05:39:24;282.00;2278.40
16491;DHT22;8356;51.214;3.270;2024-03-29T05:41:49;282.10;2278.40
16491;DHT22;8356;51.214;3.270;2024-03-29T05:44:15;282.00;2278.40
16491;DHT22;8356;51.214;3.270;2024-03-29T05:46:41;282.10;2278.40
16491;DHT22;8356;51.214;3.270;2024-03-29T05:49:07;282.00;2278.40
16491;DHT22;8356;51.214;3.270;2024-03-29T05:51:33;282.10;2278.40
16491;DHT22;8356;51.214;3.270;2024-03-29T05:54:01;282.10;2278.40
16491;DHT22;8356;51.214;3.270;2024-03-29T05:56:29;282.10;2278.40
16491;DHT22;8356;51.214;3.270;2024-03-29T05:58:55;282.10;2278.40
16491;DHT22;8356;51.214;3.270;2024-03-29T06:01:20;282.10;2278.40
16491;DHT22;8356;51.214;3.270;2024-03-29T06:03:47;282.10;2278.40
16491;DHT22;8356;51.214;3.270;2024-03-29T06:06:12;282.10;2278.40
16491;DHT22;8356;51.214;3.270;2024-03-29T06:08:43;282.10;2278.40
16491;DHT22;8356;51.214;3.270;2024-03-29T06:11:09;282.20;2278.40
16491;DHT22;8356;51.214;3.270;2024-03-29T06:13:34;282.10;2278.40
16491;DHT22;8356;51.214;3.270;2024-03-29T06:16:25;282.10;2278.40
16491;DHT22;8356;51.214;3.270;2024-03-29T06:19:10;282.10;2278.40
16491;DHT22;8356;51.214;3.270;2024-03-29T06:21:36;282.10;2278.40
16491;DHT22;8356;51.214;3.270;2024-03-29T06:24:06;282.10;2278.40
16491;DHT22;8356;51.214;3.270;2024-03-29T06:26:33;282.20;2278.40
16491;DHT22;8356;51.214;3.270;2024-03-29T06:28:59;282.10;2278.40
16491;DHT22;8356;51.214;3.270;2024-03-29T06:31:25;282.30;2278.40
16491;DHT22;8356;51.214;3.270;2024-03-29T06:33:50;282.20;2278.40
16491;DHT22;8356;51.214;3.270;2024-03-29T06:36:16;282.20;2278.40
16491;DHT22;8356;51.214;3.270;2024-03-29T06:38:41;282.30;2278.40
16491;DHT22;8356;51.214;3.270;2024-03-29T06:41:07;282.30;2278.40
16491;DHT22;8356;51.214;3.270;2024-03-29T06:43:33;282.40;2278.40
16491;DHT22;8356;51.214;3.270;2024-03-29T06:45:58;282.40;2278.40
16491;DHT22;8356;51.214;3.270;2024-03-29T06:48:24;282.50;2278.40
16491;DHT22;8356;51.214;3.270;2024-03-29T06:50:50;307.20;2304.00
16491;DHT22;8356;51.214;3.270;2024-03-29T06:53:16;307.20;2304.00
16491;DHT22;8356;51.214;3.270;2024-03-29T06:55:42;307.20;2304.00
16491;DHT22;8356;51.214;3.270;2024-03-29T06:58:07;307.30;2304.00
16491;DHT22;8356;51.214;3.270;2024-03-29T07:00:33;307.40;2304.00
16491;DHT22;8356;51.214;3.270;2024-03-29T07:02:58;307.50;2304.00
16491;DHT22;8356;51.214;3.270;2024-03-29T07:05:24;307.40;2304.00
16491;DHT22;8356;51.214;3.270;2024-03-29T07:07:50;307.50;2304.00
16491;DHT22;8356;51.214;3.270;2024-03-29T07:10:15;307.40;2304.00
16491;DHT22;8356;51.214;3.270;2024-03-29T07:12:41;307.40;2304.00
16491;DHT22;8356;51.214;3.270;2024-03-29T07:15:07;307.40;2304.00
16491;DHT22;8356;51.214;3.270;2024-03-29T07:17:33;307.40;2304.00
16491;DHT22;8356;51.214;3.270;2024-03-29T07:19:59;282.50;2278.40
16491;DHT22;8356;51.214;3.270;2024-03-29T07:22:25;307.60;2304.00
16491;DHT22;8356;51.214;3.270;2024-03-29T07:24:50;307.60;2304.00
16491;DHT22;8356;51.214;3.270;2024-03-29T07:27:16;307.60;2304.00
16491;DHT22;8356;51.214;3.270;2024-03-29T07:29:43;307.60;2304.00
16491;DHT22;8356;51.214;3.270;2024-03-29T07:32:09;307.60;2304.00
16491;DHT22;8356;51.214;3.270;2024-03-29T07:34:35;307.60;2304.00
16491;DHT22;8356;51.214;3.270;2024-03-29T07:37:01;307.60;2304.00
16491;DHT22;8356;51.214;3.270;2024-03-29T07:39:27;307.60;2304.00
16491;DHT22;8356;51.214;3.270;2024-03-29T07:41:53;307.80;2304.00
16491;DHT22;8356;51.214;3.270;2024-03-29T07:44:18;307.90;2304.00
16491;DHT22;8356;51.214;3.270;2024-03-29T07:46:44;307.80;2304.00
16491;DHT22;8356;51.214;3.270;2024-03-29T07:49:12;307.80;2304.00
16491;DHT22;8356;51.214;3.270;2024-03-29T07:51:38;333.50;2329.60
16491;DHT22;8356;51.214;3.270;2024-03-29T07:54:04;307.90;2304.00
16491;DHT22;8356;51.214;3.270;2024-03-29T07:56:30;308.10;2304.00
16491;DHT22;8356;51.214;3.270;2024-03-29T07:58:55;332.80;2329.60
16491;DHT22;8356;51.214;3.270;2024-03-29T08:01:22;332.80;2329.60
16491;DHT22;8356;51.214;3.270;2024-03-29T08:03:50;333.00;2329.60
16491;DHT22;8356;51.214;3.270;2024-03-29T08:06:18;333.20;2329.60
16491;DHT22;8356;51.214;3.270;2024-03-29T08:08:44;333.30;2329.60
16491;DHT22;8356;51.214;3.270;2024-03-29T08:11:10;333.30;2329.60
16491;DHT22;8356;51.214;3.270;2024-03-29T08:13:37;333.40;2329.60
16491;DHT22;8356;51.214;3.270;2024-03-29T08:16:03;333.50;2329.60
16491;DHT22;8356;51.214;3.270;2024-03-29T08:18:31;333.60;2329.60
16491;DHT22;8356;51.214;3.270;2024-03-29T08:20:56;333.70;2329.60
16491;DHT22;8356;51.214;3.270;2024-03-29T08:23:23;358.40;2329.60
16491;DHT22;8356;51.214;3.270;2024-03-29T08:25:49;358.50;2329.60
16491;DHT22;8356;51.214;3.270;2024-03-29T08:28:20;358.50;2329.60
16491;DHT22;8356;51.214;3.270;2024-03-29T08:30:45;358.60;2329.60
16491;DHT22;8356;51.214;3.270;2024-03-29T08:33:11;358.60;2329.60
16491;DHT22;8356;51.214;3.270;2024-03-29T08:35:38;358.60;2329.60
16491;DHT22;8356;51.214;3.270;2024-03-29T08:38:08;358.80;2329.60
16491;DHT22;8356;51.214;3.270;2024-03-29T08:40:34;358.80;2329.60
16491;DHT22;8356;51.214;3.270;2024-03-29T08:43:02;358.70;2329.60
16491;DHT22;8356;51.214;3.270;2024-03-29T08:45:29;358.70;2329.60
16491;DHT22;8356;51.214;3.270;2024-03-29T08:47:55;358.60;2329.60
16491;DHT22;8356;51.214;3.270;2024-03-29T08:50:21;358.60;2329.60
16491;DHT22;8356;51.214;3.270;2024-03-29T08:52:46;358.50;2329.60
16491;DHT22;8356;51.214;3.270;2024-03-29T08:55:12;358.40;2329.60
16491;DHT22;8356;51.214;3.270;2024-03-29T08:57:37;358.40;2329.60
16491;DHT22;8356;51.214;3.270;2024-03-29T09:00:03;358.40;2329.60
16491;DHT22;8356;51.214;3.270;2024-03-29T09:02:30;358.40;2329.60
16491;DHT22;8356;51.214;3.270;2024-03-29T09:04:55;358.40;2329.60
16491;DHT22;8356;51.214;3.270;2024-03-29T09:07:22;358.50;2329.60
16491;DHT22;8356;51.214;3.270;2024-03-29T09:09:49;358.60;2329.60
16491;DHT22;8356;51.214;3.270;2024-03-29T09:12:14;358.70;2329.60
16491;DHT22;8356;51.214;3.270;2024-03-29T09:14:40;358.60;2329.60
16491;DHT22;8356;51.214;3.270;2024-03-29T09:17:06;358.70;2329.60
16491;DHT22;8356;51.214;3.270;2024-03-29T09:19:31;358.90;2329.60
16491;DHT22;8356;51.214;3.270;2024-03-29T09:21:57;359.10;2329.60
16491;DHT22;8356;51.214;3.270;2024-03-29T09:24:23;359.20;2329.60
16491;DHT22;8356;51.214;3.270;2024-03-29T09:26:51;359.30;2329.60
16491;DHT22;8356;51.214;3.270;2024-03-29T09:29:17;384.00;2329.60
16491;DHT22;8356;51.214;3.270;2024-03-29T09:31:44;384.10;2329.60
16491;DHT22;8356;51.214;3.270;2024-03-29T09:34:10;384.10;2329.60
16491;DHT22;8356;51.214;3.270;2024-03-29T09:36:35;384.20;2329.60
16491;DHT22;8356;51.214;3.270;2024-03-29T09:39:01;384.10;2329.60
16491;DHT22;8356;51.214;3.270;2024-03-29T09:41:30;384.10;2329.60
16491;DHT22;8356;51.214;3.270;2024-03-29T09:43:58;384.20;2329.60
16491;DHT22;8356;51.214;3.270;2024-03-29T09:46:25;384.60;2329.60
16491;DHT22;8356;51.214;3.270;2024-03-29T09:48:53;384.80;2329.60
16491;DHT22;8356;51.214;3.270;2024-03-29T09:51:19;384.90;2329.60
16491;DHT22;8356;51.214;3.270;2024-03-29T09:53:46;384.70;2329.60
16491;DHT22;8356;51.214;3.270;2024-03-29T09:56:12;384.60;2329.60
16491;DHT22;8356;51.214;3.270;2024-03-29T09:58:38;384.90;2329.60
16491;DHT22;8356;51.214;3.270;2024-03-29T10:01:05;409.80;2355.20
16491;DHT22;8356;51.214;3.270;2024-03-29T10:13:22;410.40;2355.20
16491;DHT22;8356;51.214;3.270;2024-03-29T10:15:55;410.30;2355.20
16491;DHT22;8356;51.214;3.270;2024-03-29T10:18:28;435.30;2355.20
16491;DHT22;8356;51.214;3.270;2024-03-29T10:21:03;410.50;2355.20
16491;DHT22;8356;51.214;3.270;2024-03-29T10:23:30;410.40;2355.20
16491;DHT22;8356;51.214;3.270;2024-03-29T10:25:56;410.30;2355.20
16491;DHT22;8356;51.214;3.270;2024-03-29T10:28:23;410.50;2355.20
16491;DHT22;8356;51.214;3.270;2024-03-29T10:30:49;435.20;2355.20
16491;DHT22;8356;51.214;3.270;2024-03-29T10:33:15;435.40;2355.20
16491;DHT22;8356;51.214;3.270;2024-03-29T10:35:42;435.50;2355.20
16491;DHT22;8356;51.214;3.270;2024-03-29T10:38:09;410.00;2355.20
16491;DHT22;8356;51.214;3.270;2024-03-29T10:40:40;435.50;2355.20
16491;DHT22;8356;51.214;3.270;2024-03-29T10:43:10;435.30;2355.20
16491;DHT22;8356;51.214;3.270;2024-03-29T10:45:39;435.40;2355.20
16491;DHT22;8356;51.214;3.270;2024-03-29T10:48:06;435.60;2355.20
16491;DHT22;8356;51.214;3.270;2024-03-29T10:50:37;435.60;2355.20
16491;DHT22;8356;51.214;3.270;2024-03-29T10:53:05;435.60;2355.20
16491;DHT22;8356;51.214;3.270;2024-03-29T10:55:33;435.80;2355.20
16491;DHT22;8356;51.214;3.270;2024-03-29T10:58:00;435.80;2355.20
16491;DHT22;8356;51.214;3.270;2024-03-29T11:00:33;435.80;2355.20
16491;DHT22;8356;51.214;3.270;2024-03-29T11:05:33;435.90;2355.20
16491;DHT22;8356;51.214;3.270;2024-03-29T11:08:02;436.10;2355.20
16491;DHT22;8356;51.214;3.270;2024-03-29T11:10:38;435.80;2355.20
16491;DHT22;8356;51.214;3.270;2024-03-29T11:13:37;460.80;2380.80
16491;DHT22;8356;51.214;3.270;2024-03-29T11:16:04;460.90;2380.80
16491;DHT22;8356;51.214;3.270;2024-03-29T11:18:30;461.00;2380.80
16491;DHT22;8356;51.214;3.270;2024-03-29T11:20:57;461.00;2380.80
16491;DHT22;8356;51.214;3.270;2024-03-29T11:23:25;461.10;2380.80
16491;DHT22;8356;51.214;3.270;2024-03-29T11:25:52;461.30;2380.80
16491;DHT22;8356;51.214;3.270;2024-03-29T11:28:36;461.40;2380.80
16491;DHT22;8356;51.214;3.270;2024-03-29T11:33:45;461.40;2380.80
16491;DHT22;8356;51.214;3.270;2024-03-29T11:39:20;461.50;2380.80
16491;DHT22;8356;51.214;3.270;2024-03-29T11:41:47;461.40;2380.80
16491;DHT22;8356;51.214;3.270;2024-03-29T11:44:14;461.50;2380.80
16491;DHT22;8356;51.214;3.270;2024-03-29T11:46:40;461.60;2380.80
16491;DHT22;8356;51.214;3.270;2024-03-29T11:49:06;486.40;2380.80
16491;DHT22;8356;51.214;3.270;2024-03-29T11:51:32;486.60;2380.80
16491;DHT22;8356;51.214;3.270;2024-03-29T11:54:00;486.50;2380.80
16491;DHT22;8356;51.214;3.270;2024-03-29T11:56:25;461.70;2380.80
16491;DHT22;8356;51.214;3.270;2024-03-29T11:58:51;486.40;2380.80
16491;DHT22;8356;51.214;3.270;2024-03-29T15:29:40;486.40;2380.80
16491;DHT22;8356;51.214;3.270;2024-03-29T15:32:06;461.50;2380.80
16491;DHT22;8356;51.214;3.270;2024-03-29T15:41:50;461.50;2380.80
16491;DHT22;8356;51.214;3.270;2024-03-29T15:44:15;461.40;2380.80
16491;DHT22;8356;51.214;3.270;2024-03-29T16:30:51;461.40;2380.80
16491;DHT22;8356;51.214;3.270;2024-03-29T16:33:17;461.10;2380.80
16491;DHT22;8356;51.214;3.270;2024-03-29T16:35:43;461.10;2380.80
16491;DHT22;8356;51.214;3.270;2024-03-29T16:38:11;461.00;2380.80
16491;DHT22;8356;51.214;3.270;2024-03-29T16:40:38;461.00;2380.80
16491;DHT22;8356;51.214;3.270;2024-03-29T16:43:05;461.00;2380.80
16491;DHT22;8356;51.214;3.270;2024-03-29T16:45:31;460.80;2380.80
16491;DHT22;8356;51.214;3.270;2024-03-29T16:47:57;460.90;2380.80
16491;DHT22;8356;51.214;3.270;2024-03-29T16:50:23;460.90;2380.80
16491;DHT22;8356;51.214;3.270;2024-03-29T16:52:48;460.90;2380.80
16491;DHT22;8356;51.214;3.270;2024-03-29T17:02:34;461.00;2380.80
16491;DHT22;8356;51.214;3.270;2024-03-29T17:05:00;461.00;2380.80
16491;DHT22;8356;51.214;3.270;2024-03-29T17:07:26;460.80;2380.80
16491;DHT22;8356;51.214;3.270;2024-03-29T17:09:51;460.80;2380.80
16491;DHT22;8356;51.214;3.270;2024-03-29T17:24:31;436.10;2355.20
16491;DHT22;8356;51.214;3.270;2024-03-29T17:26:57;435.90;2355.20
16491;DHT22;8356;51.214;3.270;2024-03-29T17:48:58;435.80;2355.20
16491;DHT22;8356;51.214;3.270;2024-03-29T17:51:24;435.60;2355.20
16491;DHT22;8356;51.214;3.270;2024-03-29T17:53:49;435.60;2355.20
16491;DHT22;8356;51.214;3.270;2024-03-29T17:56:15;435.60;2355.20
16491;DHT22;8356;51.214;3.270;2024-03-29T17:58:41;435.50;2355.20
16491;DHT22;8356;51.214;3.270;2024-03-29T18:01:11;435.50;2355.20
16491;DHT22;8356;51.214;3.270;2024-03-29T18:03:39;435.50;2355.20
16491;DHT22;8356;51.214;3.270;2024-03-29T18:06:05;435.40;2355.20
16491;DHT22;8356;51.214;3.270;2024-03-29T18:08:31;435.20;2355.20
16491;DHT22;8356;51.214;3.270;2024-03-29T18:10:57;435.40;2355.20
16491;DHT22;8356;51.214;3.270;2024-03-29T18:13:22;435.30;2355.20
16491;DHT22;8356;51.214;3.270;2024-03-29T18:15:48;435.50;2355.20
16491;DHT22;8356;51.214;3.270;2024-03-29T18:18:14;435.50;2355.20
16491;DHT22;8356;51.214;3.270;2024-03-29T18:20:39;435.60;2355.20
16491;DHT22;8356;51.214;3.270;2024-03-29T18:23:06;435.60;2355.20
16491;DHT22;8356;51.214;3.270;2024-03-29T18:25:32;435.60;2355.20
16491;DHT22;8356;51.214;3.270;2024-03-29T18:28:00;435.40;2355.20
16491;DHT22;8356;51.214;3.270;2024-03-29T18:30:26;410.20;2355.20
16491;DHT22;8356;51.214;3.270;2024-03-29T18:32:52;435.20;2355.20
16491;DHT22;8356;51.214;3.270;2024-03-29T18:35:18;435.20;2355.20
16491;DHT22;8356;51.214;3.270;2024-03-29T18:37:44;435.20;2355.20
16491;DHT22;8356;51.214;3.270;2024-03-29T18:40:12;410.50;2355.20
16491;DHT22;8356;51.214;3.270;2024-03-29T18:42:39;435.20;2355.20
16491;DHT22;8356;51.214;3.270;2024-03-29T18:45:05;410.50;2355.20
16491;DHT22;8356;51.214;3.270;2024-03-29T18:47:33;410.50;2355.20
16491;DHT22;8356;51.214;3.270;2024-03-29T18:49:59;410.50;2355.20
16491;DHT22;8356;51.214;3.270;2024-03-29T18:52:28;410.40;2355.20
16491;DHT22;8356;51.214;3.270;2024-03-29T18:54:54;410.30;2355.20
16491;DHT22;8356;51.214;3.270;2024-03-29T18:57:21;410.30;2355.20
16491;DHT22;8356;51.214;3.270;2024-03-29T18:59:47;410.30;2355.20
16491;DHT22;8356;51.214;3.270;2024-03-29T19:02:12;410.20;2355.20
16491;DHT22;8356;51.214;3.270;2024-03-29T19:04:38;410.20;2355.20
16491;DHT22;8356;51.214;3.270;2024-03-29T19:07:06;410.20;2355.20
16491;DHT22;8356;51.214;3.270;2024-03-29T19:09:32;410.20;2355.20
16491;DHT22;8356;51.214;3.270;2024-03-29T19:11:58;410.20;2355.20
16491;DHT22;8356;51.214;3.270;2024-03-29T19:14:23;410.20;2355.20
16491;DHT22;8356;51.214;3.270;2024-03-29T19:16:50;410.30;2355.20
16491;DHT22;8356;51.214;3.270;2024-03-29T19:19:19;410.30;2355.20
16491;DHT22;8356;51.214;3.270;2024-03-29T19:21:48;410.40;2355.20
16491;DHT22;8356;51.214;3.270;2024-03-29T19:24:15;410.40;2355.20
16491;DHT22;8356;51.214;3.270;2024-03-29T19:26:43;410.40;2355.20
16491;DHT22;8356;51.214;3.270;2024-03-29T19:29:09;410.20;2355.20
16491;DHT22;8356;51.214;3.270;2024-03-29T19:31:34;410.40;2355.20
16491;DHT22;8356;51.214;3.270;2024-03-29T19:34:03;410.20;2355.20
16491;DHT22;8356;51.214;3.270;2024-03-29T19:36:29;410.30;2355.20
16491;DHT22;8356;51.214;3.270;2024-03-29T19:38:54;410.40;2355.20
16491;DHT22;8356;51.214;3.270;2024-03-29T19:41:20;410.40;2355.20
16491;DHT22;8356;51.214;3.270;2024-03-29T19:43:46;410.30;2355.20
16491;DHT22;8356;51.214;3.270;2024-03-29T19:46:11;410.20;2355.20
16491;DHT22;8356;51.214;3.270;2024-03-29T19:48:37;410.20;2355.20
16491;DHT22;8356;51.214;3.270;2024-03-29T19:51:02;410.20;2355.20
16491;DHT22;8356;51.214;3.270;2024-03-29T19:53:28;410.10;2355.20
16491;DHT22;8356;51.214;3.270;2024-03-29T19:55:54;410.00;2355.20
16491;DHT22;8356;51.214;3.270;2024-03-29T19:58:21;409.90;2355.20
16491;DHT22;8356;51.214;3.270;2024-03-29T20:00:46;384.90;2329.60
16491;DHT22;8356;51.214;3.270;2024-03-29T20:03:13;409.90;2355.20
16491;DHT22;8356;51.214;3.270;2024-03-29T20:05:41;409.90;2355.20
16491;DHT22;8356;51.214;3.270;2024-03-29T20:08:07;410.00;2355.20
16491;DHT22;8356;51.214;3.270;2024-03-29T20:10:41;409.90;2355.20
16491;DHT22;8356;51.214;3.270;2024-03-29T20:13:08;409.90;2355.20
16491;DHT22;8356;51.214;3.270;2024-03-29T20:15:42;409.80;2355.20
16491;DHT22;8356;51.214;3.270;2024-03-29T20:18:09;409.80;2355.20